Terminal Aerodrome Forecast
Issued by NWS

Home | Current Version | Previous Version | Text Only | Print | Product List | Glossary On
Versions: 1 2 3 4 5 6 7 8 9 10 11 12 13 14 15 16 17 18 19 20 21 22 23 24 25 26
540
FTUS41 KGYX 212320
TAFHIE
TAF
KHIE 212320Z 2200/2224 26005KT P6SM FEW250
     FM220700 31004KT 1/2SM FG SCT001
     FM221300 23006KT P6SM BKN250
     FM221800 22010KT P6SM BKN050=

USA.gov is the U.S. government's official web portal to all federal, state and local government web resources and services.